createdAt,value
2018-05-18T00:01:59.199Z,99.90
2018-05-18T00:04:26.705Z,99.90
2018-05-18T00:06:54.215Z,99.90
2018-05-18T00:09:21.746Z,99.90
2018-05-18T00:11:50.030Z,99.90
2018-05-18T00:14:17.555Z,99.90
2018-05-18T00:16:45.083Z,99.90
2018-05-18T00:19:12.611Z,99.90
2018-05-18T00:21:40.129Z,99.90
2018-05-18T00:24:07.663Z,99.90
2018-05-18T00:26:35.178Z,99.90
2018-05-18T00:29:03.439Z,99.90
2018-05-18T00:31:30.977Z,99.90
2018-05-18T00:33:58.477Z,99.90
2018-05-18T00:36:26.767Z,99.90
2018-05-18T00:38:54.285Z,99.90
2018-05-18T00:41:21.812Z,99.90
2018-05-18T00:43:49.335Z,99.90
2018-05-18T00:46:16.848Z,99.90
2018-05-18T00:48:45.855Z,99.90
2018-05-18T00:51:13.374Z,99.90
2018-05-18T00:53:40.877Z,99.90
2018-05-18T00:56:09.155Z,99.90
2018-05-18T00:58:36.692Z,99.90
2018-05-18T01:01:04.181Z,99.90
2018-05-18T01:03:32.450Z,99.90
2018-05-18T01:06:00.744Z,99.90
2018-05-18T01:08:28.240Z,99.90
2018-05-18T01:10:55.761Z,99.90
2018-05-18T01:13:23.283Z,99.90
2018-05-18T01:15:50.838Z,99.90
2018-05-18T01:18:18.356Z,99.90
2018-05-18T01:20:45.877Z,99.90
2018-05-18T01:23:13.387Z,99.90
2018-05-18T01:25:40.899Z,99.90
2018-05-18T01:28:09.238Z,99.90
2018-05-18T01:30:36.767Z,99.90
2018-05-18T01:33:04.283Z,99.90
2018-05-18T01:35:32.584Z,99.90
2018-05-18T01:38:00.124Z,99.90
2018-05-18T01:40:27.631Z,99.90
2018-05-18T01:42:55.201Z,99.90
2018-05-18T01:45:22.699Z,99.90
2018-05-18T01:47:50.974Z,99.90
2018-05-18T01:50:18.497Z,99.90
2018-05-18T01:52:46.032Z,99.90
2018-05-18T01:55:13.548Z,99.90
2018-05-18T01:57:41.837Z,99.90
2018-05-18T02:00:09.353Z,99.90
2018-05-18T02:02:36.870Z,99.90
2018-05-18T02:05:04.421Z,99.90
2018-05-18T02:07:31.964Z,99.90
2018-05-18T02:09:59.454Z,99.90
2018-05-18T02:12:26.978Z,99.90
2018-05-18T02:14:54.530Z,99.90
2018-05-18T02:17:22.028Z,99.90
2018-05-18T02:19:49.551Z,99.90
2018-05-18T02:22:17.051Z,99.90
2018-05-18T02:24:44.575Z,99.90
2018-05-18T02:27:12.088Z,99.90
2018-05-18T02:29:39.621Z,99.90
2018-05-18T02:32:07.144Z,99.90
2018-05-18T02:34:34.647Z,99.90
2018-05-18T02:37:02.142Z,99.90
2018-05-18T02:39:30.458Z,99.90
2018-05-18T02:41:57.982Z,99.90
2018-05-18T02:44:25.501Z,99.90
2018-05-18T02:46:53.040Z,99.90
2018-05-18T02:49:20.570Z,99.80
2018-05-18T02:51:48.139Z,99.70
2018-05-18T02:54:15.675Z,99.60
2018-05-18T02:56:43.170Z,99.60
2018-05-18T02:59:10.696Z,99.70
2018-05-18T03:01:38.979Z,99.90
2018-05-18T03:04:06.488Z,99.90
2018-05-18T03:06:33.998Z,99.90
2018-05-18T03:09:01.541Z,99.90
2018-05-18T03:11:29.055Z,99.90
2018-05-18T03:13:56.585Z,99.60
2018-05-18T03:16:24.113Z,99.70
2018-05-18T03:18:51.616Z,99.90
2018-05-18T03:21:19.119Z,99.90
2018-05-18T03:23:47.433Z,99.90
2018-05-18T03:26:14.941Z,99.90
2018-05-18T03:28:42.543Z,99.90
2018-05-18T03:31:10.067Z,99.90
2018-05-18T03:33:38.356Z,99.90
2018-05-18T03:36:06.651Z,99.90
2018-05-18T03:38:34.207Z,99.90
2018-05-18T03:41:01.721Z,99.90
2018-05-18T03:43:29.250Z,99.90
2018-05-18T03:45:56.746Z,99.90
2018-05-18T03:48:24.253Z,99.90
2018-05-18T03:50:51.771Z,99.90
2018-05-18T03:53:19.291Z,99.90
2018-05-18T03:55:46.790Z,99.90
2018-05-18T03:58:14.352Z,99.90
2018-05-18T04:00:42.691Z,99.90
2018-05-18T04:06:23.919Z,99.90
2018-05-18T04:08:53.003Z,99.90
2018-05-18T04:11:20.513Z,99.90
2018-05-18T04:13:48.034Z,99.90
2018-05-18T04:16:15.549Z,99.90
2018-05-18T04:18:43.049Z,99.90
2018-05-18T04:21:10.582Z,99.90
2018-05-18T04:23:38.085Z,99.90
2018-05-18T04:26:05.614Z,99.90
2018-05-18T04:28:33.138Z,99.90
2018-05-18T04:31:00.681Z,99.90
2018-05-18T04:33:28.188Z,99.90
2018-05-18T04:35:55.724Z,99.90
2018-05-18T04:38:23.232Z,99.90
2018-05-18T04:40:50.787Z,99.50
2018-05-18T04:43:18.376Z,99.70
2018-05-18T04:45:45.837Z,99.60
2018-05-18T04:48:13.343Z,99.80
2018-05-18T04:50:40.869Z,99.90
2018-05-18T04:53:08.400Z,99.90
2018-05-18T04:55:35.972Z,99.90
2018-05-18T04:58:03.475Z,99.90
2018-05-18T05:00:31.768Z,99.90
2018-05-18T05:02:59.273Z,99.90
2018-05-18T05:05:26.826Z,99.90
2018-05-18T05:07:54.384Z,99.90
2018-05-18T05:10:21.888Z,99.90
2018-05-18T05:12:49.442Z,99.90
2018-05-18T05:15:16.992Z,99.90
2018-05-18T05:17:44.555Z,99.90
2018-05-18T05:20:12.840Z,99.90
2018-05-18T05:22:41.103Z,99.90
2018-05-18T05:25:08.659Z,99.90
2018-05-18T05:27:36.182Z,99.90
2018-05-18T05:30:03.809Z,99.90
2018-05-18T05:32:31.356Z,99.90
2018-05-18T05:34:59.625Z,99.90
2018-05-18T05:37:27.925Z,99.90
2018-05-18T05:39:55.447Z,99.90
2018-05-18T05:42:22.969Z,99.90
2018-05-18T05:44:50.516Z,99.90
2018-05-18T05:47:18.035Z,99.90
2018-05-18T05:49:45.576Z,99.90
2018-05-18T05:52:13.088Z,99.90
2018-05-18T05:54:40.607Z,99.90
2018-05-18T05:57:08.929Z,99.90
2018-05-18T05:59:36.431Z,99.90
2018-05-18T06:02:03.944Z,99.90
2018-05-18T06:04:31.480Z,99.90
2018-05-18T06:06:59.014Z,99.90
2018-05-18T06:09:26.510Z,99.90
2018-05-18T06:11:54.040Z,99.90
2018-05-18T06:14:22.320Z,99.90
2018-05-18T06:16:49.819Z,99.90
2018-05-18T06:19:17.331Z,99.90
2018-05-18T06:21:44.882Z,99.90
2018-05-18T06:24:12.379Z,99.90
2018-05-18T06:26:39.888Z,99.90
2018-05-18T06:29:07.487Z,99.90
2018-05-18T06:31:34.997Z,99.90
2018-05-18T06:34:02.531Z,99.90
2018-05-18T06:36:30.096Z,99.90
2018-05-18T06:38:57.771Z,99.90
2018-05-18T06:41:25.257Z,99.90
2018-05-18T06:43:52.800Z,99.90
2018-05-18T06:46:21.083Z,99.90
2018-05-18T06:48:58.203Z,99.90
2018-05-18T06:51:25.697Z,99.90
2018-05-18T06:53:53.228Z,99.90
2018-05-18T06:56:20.787Z,99.90
2018-05-18T06:58:48.335Z,99.90
2018-05-18T07:01:16.566Z,99.90
2018-05-18T07:03:44.879Z,99.90
2018-05-18T07:06:12.404Z,99.90
2018-05-18T07:08:40.679Z,99.90
2018-05-18T07:11:08.982Z,99.90
2018-05-18T07:13:36.483Z,99.90
2018-05-18T07:16:04.015Z,99.90
2018-05-18T07:18:31.587Z,99.90
2018-05-18T07:20:59.116Z,98.90
2018-05-18T07:23:26.643Z,98.80
2018-05-18T07:25:54.179Z,97.90
2018-05-18T07:28:21.699Z,97.10
2018-05-18T07:30:49.997Z,95.80
2018-05-18T07:33:17.535Z,95.80
2018-05-18T07:35:45.050Z,94.90
2018-05-18T07:38:13.328Z,93.90
2018-05-18T07:40:40.863Z,93.90
2018-05-18T07:43:08.384Z,93.60
2018-05-18T07:45:35.915Z,91.80
2018-05-18T07:48:03.429Z,91.80
2018-05-18T07:50:30.979Z,88.30
2018-05-18T07:52:58.509Z,89.20
2018-05-18T07:55:26.043Z,87.10
2018-05-18T07:57:53.557Z,85.30
2018-05-18T08:00:21.088Z,88.00
2018-05-18T08:02:48.640Z,86.20
2018-05-18T08:05:16.219Z,87.60
2018-05-18T08:07:43.740Z,87.00
2018-05-18T08:10:11.331Z,85.80
2018-05-18T08:12:38.897Z,84.70
2018-05-18T08:15:06.478Z,84.70
2018-05-18T08:17:34.019Z,81.60
2018-05-18T08:20:01.569Z,76.20
2018-05-18T08:22:29.081Z,77.10
2018-05-18T08:24:56.630Z,75.70
2018-05-18T08:27:24.919Z,74.10
2018-05-18T08:29:52.462Z,74.20
2018-05-18T08:32:20.766Z,74.60
2018-05-18T08:34:48.283Z,74.50
2018-05-18T08:37:15.870Z,72.90
2018-05-18T08:39:43.383Z,73.10
2018-05-18T08:42:10.923Z,73.60
2018-05-18T08:44:38.488Z,72.90
2018-05-18T08:47:06.009Z,72.60
2018-05-18T08:49:38.443Z,71.40
2018-05-18T08:52:05.963Z,73.20
2018-05-18T08:54:33.474Z,72.90
2018-05-18T08:57:01.794Z,72.90
2018-05-18T08:59:29.350Z,72.90
2018-05-18T09:01:56.867Z,75.00
2018-05-18T09:04:24.409Z,75.60
2018-05-18T09:06:51.926Z,77.00
2018-05-18T09:09:19.448Z,74.40
2018-05-18T09:11:47.805Z,73.20
2018-05-18T09:14:15.327Z,73.20
2018-05-18T09:16:42.904Z,74.50
2018-05-18T09:19:10.426Z,72.20
2018-05-18T09:21:37.936Z,71.90
2018-05-18T09:24:05.461Z,72.50
2018-05-18T09:26:33.007Z,70.50
2018-05-18T09:29:00.627Z,71.30
2018-05-18T09:31:28.913Z,70.60
2018-05-18T09:33:57.210Z,71.70
2018-05-18T09:36:24.764Z,71.70
2018-05-18T09:38:52.295Z,70.60
2018-05-18T09:41:20.622Z,69.80
2018-05-18T09:43:48.217Z,69.70
2018-05-18T09:46:15.779Z,67.70
2018-05-18T09:48:43.281Z,68.20
2018-05-18T09:51:10.847Z,68.40
2018-05-18T09:53:38.351Z,67.60
2018-05-18T09:56:05.926Z,68.50
2018-05-18T09:58:34.239Z,66.70
2018-05-18T10:01:01.759Z,66.70
2018-05-18T10:03:30.070Z,66.40
2018-05-18T10:05:57.843Z,66.40
2018-05-18T10:08:25.457Z,66.90
2018-05-18T10:10:53.064Z,65.80
2018-05-18T10:13:21.479Z,66.20
2018-05-18T10:15:49.016Z,65.60
2018-05-18T10:18:16.544Z,66.50
2018-05-18T10:20:44.088Z,65.70
2018-05-18T10:23:11.623Z,64.60
2018-05-18T10:25:39.922Z,67.00
2018-05-18T10:28:07.481Z,66.90
2018-05-18T10:30:35.004Z,68.10
2018-05-18T10:33:02.544Z,68.30
2018-05-18T10:35:30.076Z,66.40
2018-05-18T10:37:57.603Z,66.10
2018-05-18T10:40:25.150Z,66.10
2018-05-18T10:42:53.445Z,67.50
2018-05-18T10:45:21.044Z,67.40
2018-05-18T10:47:48.506Z,67.00
2018-05-18T10:50:16.051Z,66.80
2018-05-18T10:52:43.619Z,67.40
2018-05-18T10:55:11.123Z,66.10
2018-05-18T10:57:39.475Z,67.60
2018-05-18T11:00:07.169Z,67.50
2018-05-18T11:02:34.675Z,66.20
2018-05-18T11:05:02.194Z,65.90
2018-05-18T11:07:29.719Z,64.40
2018-05-18T11:09:57.288Z,64.90
2018-05-18T11:12:24.795Z,65.60
2018-05-18T11:14:52.303Z,64.70
2018-05-18T11:17:19.884Z,63.30
2018-05-18T11:19:47.475Z,64.50
2018-05-18T11:22:15.790Z,65.40
2018-05-18T11:24:43.304Z,65.40
2018-05-18T11:27:10.835Z,62.20
2018-05-18T11:29:38.351Z,65.10
2018-05-18T11:32:05.864Z,63.30
2018-05-18T11:34:33.390Z,63.30
2018-05-18T11:37:00.918Z,63.80
2018-05-18T11:39:28.473Z,64.50
2018-05-18T11:41:55.983Z,64.00
2018-05-18T11:44:23.557Z,63.90
2018-05-18T11:46:51.163Z,64.10
2018-05-18T11:49:18.723Z,62.40
2018-05-18T11:51:46.295Z,63.20
2018-05-18T11:54:13.873Z,63.60
2018-05-18T11:56:41.371Z,62.40
2018-05-18T11:59:08.907Z,61.00
2018-05-18T12:01:37.186Z,61.60
2018-05-18T12:04:04.686Z,61.50
2018-05-18T12:06:32.227Z,60.80
2018-05-18T12:08:59.940Z,61.40
2018-05-18T12:11:27.524Z,62.50
2018-05-18T12:13:55.058Z,61.00
2018-05-18T12:16:22.618Z,60.60
2018-05-18T12:18:50.146Z,61.00
2018-05-18T12:21:17.661Z,60.10
2018-05-18T12:23:45.183Z,60.80
2018-05-18T12:26:13.476Z,60.00
2018-05-18T12:28:41.028Z,60.00
2018-05-18T12:31:08.567Z,59.30
2018-05-18T12:33:36.109Z,58.80
2018-05-18T12:36:03.618Z,58.80
2018-05-18T12:38:31.156Z,57.50
2018-05-18T12:40:58.681Z,58.90
2018-05-18T12:43:26.215Z,58.20
2018-05-18T12:45:53.865Z,58.60
2018-05-18T12:48:21.383Z,58.30
2018-05-18T12:50:48.926Z,58.60
2018-05-18T12:53:17.217Z,57.30
2018-05-18T12:55:44.764Z,57.90
2018-05-18T12:58:12.284Z,57.90
2018-05-18T13:00:39.814Z,57.80
2018-05-18T13:03:07.363Z,58.80
2018-05-18T13:05:34.887Z,58.00
2018-05-18T13:08:02.453Z,59.10
2018-05-18T13:10:30.746Z,59.90
2018-05-18T13:12:58.294Z,59.90
2018-05-18T13:15:25.832Z,59.70
2018-05-18T13:17:53.350Z,59.20
2018-05-18T13:20:20.892Z,59.60
2018-05-18T13:22:48.518Z,59.80
2018-05-18T13:25:16.019Z,59.30
2018-05-18T13:27:43.553Z,58.40
2018-05-18T13:30:11.091Z,59.20
2018-05-18T13:32:39.469Z,58.70
2018-05-18T13:35:07.756Z,57.90
2018-05-18T13:37:36.053Z,58.20
2018-05-18T13:40:03.611Z,58.10
2018-05-18T13:42:31.122Z,57.50
2018-05-18T13:44:58.675Z,56.90
2018-05-18T13:47:26.182Z,57.70
2018-05-18T13:49:53.744Z,58.10
2018-05-18T13:52:21.272Z,58.80
2018-05-18T13:54:49.558Z,57.40
2018-05-18T13:57:17.181Z,57.40
2018-05-18T13:59:44.633Z,58.60
2018-05-18T14:02:12.160Z,59.20
2018-05-18T14:04:39.716Z,58.00
2018-05-18T14:07:07.274Z,59.10
2018-05-18T14:09:34.821Z,58.90
2018-05-18T14:12:02.371Z,60.00
2018-05-18T14:14:29.916Z,60.30
2018-05-18T14:16:57.534Z,59.50
2018-05-18T14:19:25.089Z,58.70
2018-05-18T14:21:52.638Z,59.20
2018-05-18T14:24:20.159Z,58.70
2018-05-18T14:26:47.697Z,58.00
2018-05-18T14:29:15.216Z,58.90
2018-05-18T14:31:42.724Z,58.40
2018-05-18T14:34:10.266Z,59.00
2018-05-18T14:36:37.848Z,58.90
2018-05-18T14:39:19.687Z,59.00
2018-05-18T14:41:47.269Z,59.10
2018-05-18T14:44:14.804Z,59.60
2018-05-18T14:46:42.413Z,59.40
2018-05-18T14:49:10.725Z,58.80
2018-05-18T14:51:38.279Z,58.70
2018-05-18T14:54:05.809Z,58.00
2018-05-18T14:56:33.411Z,57.60
2018-05-18T14:59:00.959Z,57.50
2018-05-18T15:01:28.499Z,57.40
2018-05-18T15:03:56.051Z,58.20
2018-05-18T15:06:23.594Z,59.10
2018-05-18T15:08:51.917Z,60.90
2018-05-18T15:11:19.488Z,61.60
2018-05-18T15:13:47.042Z,60.80
2018-05-18T15:16:14.688Z,62.20
2018-05-18T15:18:42.157Z,62.60
2018-05-18T15:21:09.699Z,62.20
2018-05-18T15:23:37.227Z,63.30
2018-05-18T15:26:04.763Z,63.30
2018-05-18T15:28:32.352Z,63.80
2018-05-18T15:30:59.898Z,64.60
2018-05-18T15:33:28.213Z,65.10
2018-05-18T15:35:55.783Z,65.00
2018-05-18T15:38:23.353Z,62.70
2018-05-18T15:40:50.887Z,62.70
2018-05-18T15:43:18.408Z,61.50
2018-05-18T15:45:45.999Z,63.80
2018-05-18T15:48:13.540Z,64.00
2018-05-18T15:50:41.064Z,64.50
2018-05-18T15:53:08.642Z,65.30
2018-05-18T15:55:36.944Z,65.50
2018-05-18T15:58:05.132Z,65.50
2018-05-18T16:00:33.441Z,65.00
2018-05-18T16:03:01.758Z,64.50
2018-05-18T16:05:30.066Z,63.90
2018-05-18T16:07:57.616Z,63.90
2018-05-18T16:10:25.148Z,64.60
2018-05-18T16:12:52.749Z,64.20
2018-05-18T16:15:20.978Z,64.30
2018-05-18T16:17:48.563Z,64.20
2018-05-18T16:20:16.122Z,64.50
2018-05-18T16:22:44.475Z,65.10
2018-05-18T16:25:12.032Z,65.10
2018-05-18T16:27:39.618Z,65.90
2018-05-18T16:30:07.192Z,65.90
2018-05-18T16:32:34.715Z,66.10
2018-05-18T16:35:02.213Z,65.90
2018-05-18T16:37:29.784Z,65.10
2018-05-18T16:40:07.162Z,65.30
2018-05-18T16:42:34.622Z,65.60
2018-05-18T16:45:02.170Z,64.80
2018-05-18T16:47:29.698Z,64.80
2018-05-18T16:49:57.282Z,63.80
2018-05-18T16:52:24.848Z,63.40
2018-05-18T16:54:52.395Z,63.10
2018-05-18T16:57:19.918Z,64.30
2018-05-18T16:59:47.423Z,64.30
2018-05-18T17:02:14.938Z,64.40
2018-05-18T17:04:43.239Z,64.70
2018-05-18T17:07:10.771Z,64.70
2018-05-18T17:09:38.301Z,64.10
2018-05-18T17:12:05.832Z,63.10
2018-05-18T17:14:33.355Z,62.40
2018-05-18T17:17:00.849Z,62.50
2018-05-18T17:19:28.431Z,62.30
2018-05-18T17:21:55.931Z,62.90
2018-05-18T17:24:23.468Z,63.80
2018-05-18T17:26:51.004Z,64.00
2018-05-18T17:29:18.545Z,65.00
2018-05-18T17:31:46.050Z,64.90
2018-05-18T17:34:13.619Z,64.50
2018-05-18T17:36:41.163Z,61.60
2018-05-18T17:39:09.438Z,60.60
2018-05-18T17:41:36.979Z,60.50
2018-05-18T17:44:04.571Z,60.20
2018-05-18T17:46:32.098Z,59.60
2018-05-18T17:48:59.670Z,59.90
2018-05-18T17:51:27.143Z,59.80
2018-05-18T17:53:54.706Z,60.00
2018-05-18T17:56:22.325Z,59.60
2018-05-18T17:58:54.919Z,59.30
2018-05-18T18:01:23.281Z,58.70
2018-05-18T18:03:50.813Z,58.70
2018-05-18T18:06:18.330Z,58.00
2018-05-18T18:08:45.892Z,57.90
2018-05-18T18:11:13.431Z,58.30
2018-05-18T18:13:40.946Z,59.00
2018-05-18T18:16:08.520Z,58.70
2018-05-18T18:18:36.023Z,60.20
2018-05-18T18:21:03.577Z,61.10
2018-05-18T18:23:31.152Z,61.30
2018-05-18T18:25:58.700Z,62.90
2018-05-18T18:28:26.318Z,63.50
2018-05-18T18:30:58.940Z,63.90
2018-05-18T18:33:26.463Z,64.40
2018-05-18T18:35:53.984Z,65.40
2018-05-18T18:38:21.550Z,65.70
2018-05-18T18:40:49.085Z,66.50
2018-05-18T18:43:16.589Z,66.30
2018-05-18T18:45:44.123Z,65.70
2018-05-18T18:48:11.624Z,65.60
2018-05-18T18:50:39.164Z,66.50
2018-05-18T18:53:06.744Z,67.90
2018-05-18T18:55:34.253Z,70.00
2018-05-18T18:58:01.751Z,70.90
2018-05-18T19:00:29.358Z,71.10
2018-05-18T19:02:56.980Z,70.70
2018-05-18T19:05:24.519Z,71.10
2018-05-18T19:07:52.064Z,70.60
2018-05-18T19:10:19.556Z,71.50
2018-05-18T19:12:47.092Z,72.30
2018-05-18T19:15:14.702Z,73.40
2018-05-18T19:17:42.165Z,73.70
2018-05-18T19:20:09.716Z,73.80
2018-05-18T19:22:37.234Z,74.70
2018-05-18T19:25:05.575Z,75.90
2018-05-18T19:27:33.108Z,75.90
2018-05-18T19:30:00.614Z,76.50
2018-05-18T19:32:28.184Z,77.10
2018-05-18T19:34:55.715Z,76.50
2018-05-18T19:37:23.256Z,76.60
2018-05-18T19:39:50.800Z,75.80
2018-05-18T19:42:18.330Z,75.70
2018-05-18T19:44:46.646Z,78.20
2018-05-18T19:47:14.171Z,78.10
2018-05-18T19:49:41.684Z,78.10
2018-05-18T19:52:09.284Z,78.70
2018-05-18T19:54:36.833Z,79.00
2018-05-18T19:57:05.142Z,79.40
2018-05-18T19:59:32.752Z,79.30
2018-05-18T20:02:00.292Z,79.70
2018-05-18T20:04:27.870Z,79.00
2018-05-18T20:06:55.419Z,79.00
2018-05-18T20:09:22.922Z,80.00
2018-05-18T20:11:50.494Z,79.10
2018-05-18T20:14:17.991Z,78.70
2018-05-18T20:16:45.523Z,78.60
2018-05-18T20:19:13.175Z,78.80
2018-05-18T20:21:40.703Z,80.70
2018-05-18T20:24:08.992Z,81.00
2018-05-18T20:26:36.554Z,81.00
2018-05-18T20:29:04.187Z,80.70
2018-05-18T20:31:32.482Z,82.20
2018-05-18T20:34:00.056Z,82.20
2018-05-18T20:36:27.558Z,82.60
2018-05-18T20:39:14.023Z,82.70
2018-05-18T20:41:41.553Z,82.20
2018-05-18T20:44:09.071Z,82.20
2018-05-18T20:46:36.617Z,82.30
2018-05-18T20:49:04.145Z,83.10
2018-05-18T20:51:31.660Z,84.00
2018-05-18T20:53:59.267Z,84.30
2018-05-18T20:56:26.811Z,84.20
2018-05-18T20:58:54.306Z,84.10
2018-05-18T21:01:21.863Z,85.00
2018-05-18T21:03:49.367Z,85.50
2018-05-18T21:06:16.948Z,85.30
2018-05-18T21:08:44.541Z,86.80
2018-05-18T21:11:12.051Z,87.50
2018-05-18T21:13:40.326Z,87.60
2018-05-18T21:16:08.628Z,87.50
2018-05-18T21:18:36.153Z,87.50
2018-05-18T21:21:03.681Z,87.70
2018-05-18T21:23:31.220Z,88.30
2018-05-18T21:25:58.731Z,88.70
2018-05-18T21:28:26.231Z,89.60
2018-05-18T21:30:53.959Z,90.00
2018-05-18T21:33:21.490Z,90.20
2018-05-18T21:35:49.009Z,90.30
2018-05-18T21:38:16.584Z,90.50
2018-05-18T21:40:44.128Z,90.70
2018-05-18T21:43:11.644Z,91.10
2018-05-18T21:45:39.939Z,91.40
2018-05-18T21:48:07.474Z,91.30
2018-05-18T21:50:35.098Z,91.30
2018-05-18T21:53:02.679Z,91.20
2018-05-18T21:55:30.189Z,91.00
2018-05-18T21:57:57.719Z,91.40
2018-05-18T22:00:30.191Z,91.50
2018-05-18T22:02:57.706Z,91.90
2018-05-18T22:05:25.219Z,92.20
2018-05-18T22:07:52.750Z,91.70
2018-05-18T22:10:20.297Z,91.50
2018-05-18T22:12:47.805Z,91.60
2018-05-18T22:15:15.373Z,91.70
2018-05-18T22:17:42.923Z,91.50
2018-05-18T22:20:29.736Z,91.50
2018-05-18T22:22:57.254Z,91.40
2018-05-18T22:25:24.775Z,91.20
2018-05-18T22:27:52.313Z,91.30
2018-05-18T22:30:19.917Z,91.20
2018-05-18T22:32:47.461Z,91.30
2018-05-18T22:35:14.970Z,91.40
2018-05-18T22:37:42.511Z,91.20
2018-05-18T22:40:10.152Z,91.30
2018-05-18T22:42:37.642Z,91.10
2018-05-18T22:45:05.201Z,91.10
2018-05-18T22:47:32.727Z,91.30
2018-05-18T22:50:00.292Z,91.30
2018-05-18T22:52:27.807Z,91.20
2018-05-18T22:54:55.356Z,91.40
2018-05-18T22:57:22.881Z,91.50
2018-05-18T22:59:51.255Z,91.30
2018-05-18T23:02:19.556Z,91.50
2018-05-18T23:04:47.070Z,91.40
2018-05-18T23:07:14.655Z,91.50
2018-05-18T23:09:51.784Z,91.50
2018-05-18T23:12:19.337Z,91.70
2018-05-18T23:14:46.847Z,91.90
2018-05-18T23:17:15.127Z,92.20
2018-05-18T23:19:43.421Z,92.20
2018-05-18T23:22:11.841Z,92.20
2018-05-18T23:24:39.372Z,92.00
2018-05-18T23:27:07.644Z,92.20
2018-05-18T23:29:35.210Z,92.20
2018-05-18T23:32:02.749Z,92.40
2018-05-18T23:34:30.287Z,92.50
2018-05-18T23:36:57.843Z,92.70
2018-05-18T23:39:26.195Z,92.90
2018-05-18T23:41:53.705Z,92.90
2018-05-18T23:44:21.211Z,92.80
2018-05-18T23:46:48.729Z,92.70
2018-05-18T23:49:16.268Z,92.90
2018-05-18T23:51:43.816Z,92.70
2018-05-18T23:54:12.119Z,92.90
2018-05-18T23:56:39.646Z,92.90
2018-05-18T23:59:07.182Z,92.90
